createdAt,value
2017-12-05T02:01:16.500Z,99506.52
2017-12-05T03:28:21.588Z,99502.72
2017-12-05T03:30:51.010Z,99506.41
2017-12-05T03:33:22.099Z,99503.34
2017-12-05T03:35:50.936Z,99495.43
2017-12-05T03:38:24.567Z,99495.74
2017-12-05T03:40:52.459Z,99490.84
2017-12-05T03:43:20.237Z,99497.28
2017-12-05T03:45:49.769Z,99501.17
2017-12-05T03:48:17.612Z,99499.63
2017-12-05T03:50:48.425Z,99502.42
2017-12-05T04:16:05.920Z,99495.86
2017-12-05T04:35:31.074Z,99503.60
2017-12-05T04:37:58.633Z,99510.27
2017-12-05T04:40:26.246Z,99514.59
2017-12-05T04:42:54.518Z,99510.63
2017-12-05T04:45:23.519Z,99507.75
2017-12-05T04:47:55.507Z,99511.52
2017-12-05T04:50:24.920Z,99512.87
2017-12-05T04:52:53.329Z,99513.80
2017-12-05T04:55:21.381Z,99519.84
2017-12-05T04:57:50.223Z,99520.14
2017-12-05T05:00:19.271Z,99515.72
2017-12-05T05:02:47.356Z,99516.59
2017-12-05T05:05:17.757Z,99518.98
2017-12-05T05:07:45.761Z,99517.25
2017-12-05T05:10:13.762Z,99516.00
2017-12-05T05:12:45.244Z,99511.84
2017-12-05T05:15:14.971Z,99520.23
2017-12-05T05:17:48.078Z,99516.61
2017-12-05T05:20:16.702Z,99508.88
2017-12-05T05:22:44.911Z,99507.83
2017-12-05T05:25:13.801Z,99509.41
2017-12-05T05:27:44.113Z,99501.32
2017-12-05T05:30:13.153Z,99516.41
2017-12-05T05:32:41.969Z,99518.67
2017-12-05T05:35:09.844Z,99510.47
2017-12-05T05:37:37.654Z,99513.66
2017-12-05T05:40:06.191Z,99504.25
2017-12-05T05:42:36.065Z,99512.48
2017-12-05T05:45:05.323Z,99512.95
2017-12-05T05:47:33.152Z,99521.94
2017-12-05T05:50:01.388Z,99526.52
2017-12-05T05:52:29.066Z,99524.90
2017-12-05T05:54:58.189Z,99528.87
2017-12-05T05:57:27.158Z,99504.38
2017-12-05T05:59:55.140Z,99530.53
2017-12-05T06:02:25.629Z,99535.32
2017-12-05T06:04:53.403Z,99534.91
2017-12-05T06:07:23.656Z,99535.25
2017-12-05T06:09:55.018Z,99526.99
2017-12-05T06:12:30.528Z,99532.91
2017-12-05T06:15:06.163Z,99539.18
2017-12-05T06:17:35.591Z,99542.86
2017-12-05T06:20:04.682Z,99539.85
2017-12-05T06:22:32.283Z,99540.97
2017-12-05T06:25:00.056Z,99535.45
2017-12-05T06:27:27.671Z,99539.22
2017-12-05T06:29:56.248Z,99548.23
2017-12-05T06:32:23.983Z,99548.36
2017-12-05T06:34:51.650Z,99549.44
2017-12-05T06:37:19.230Z,99552.80
2017-12-05T06:39:46.936Z,99559.67
2017-12-05T06:42:14.793Z,99555.48
2017-12-05T06:44:42.281Z,99565.75
2017-12-05T06:47:10.918Z,99565.69
2017-12-05T06:49:38.407Z,99559.58
2017-12-05T06:52:07.988Z,99564.28
2017-12-05T06:54:36.337Z,99559.52
2017-12-05T06:57:03.918Z,99560.94
2017-12-05T06:59:31.441Z,99568.77
2017-12-05T07:01:58.930Z,99563.66
2017-12-05T07:04:26.508Z,99560.69
2017-12-05T07:06:54.052Z,99563.38
2017-12-05T07:09:22.697Z,99566.06
2017-12-05T07:11:50.326Z,99574.90
2017-12-05T07:14:18.064Z,99575.61
2017-12-05T07:16:45.579Z,99577.38
2017-12-05T07:19:13.138Z,99591.38
2017-12-05T07:21:40.655Z,99588.06
2017-12-05T07:24:08.362Z,99594.14
2017-12-05T07:26:35.950Z,99602.99
2017-12-05T07:29:03.571Z,99598.92
2017-12-05T07:31:31.153Z,99610.31
2017-12-05T07:33:58.704Z,99603.83
2017-12-05T07:36:26.288Z,99603.97
2017-12-05T07:38:54.024Z,99604.16
2017-12-05T07:41:21.546Z,99607.52
2017-12-05T07:43:49.087Z,99568.21
2017-12-05T07:46:16.662Z,99606.80
2017-12-05T07:48:44.471Z,99601.06
2017-12-05T07:51:12.090Z,99602.12
2017-12-05T07:53:39.868Z,99608.69
2017-12-05T07:56:07.577Z,99604.80
2017-12-05T07:58:35.183Z,99597.86
2017-12-05T08:01:02.942Z,99600.19
2017-12-05T08:03:30.458Z,99605.96
2017-12-05T08:05:58.978Z,99604.73
2017-12-05T08:08:26.536Z,99602.72
2017-12-05T08:10:54.134Z,99599.24
2017-12-05T08:13:21.671Z,99586.39
2017-12-05T08:15:49.370Z,99600.25
2017-12-05T08:18:17.749Z,99606.94
2017-12-05T08:20:46.229Z,99609.08
2017-12-05T08:23:13.761Z,99610.81
2017-12-05T08:25:41.285Z,99609.48
2017-12-05T08:28:09.019Z,99612.37
2017-12-05T08:30:36.591Z,99621.92
2017-12-05T08:33:04.152Z,99620.97
2017-12-05T08:35:31.673Z,99631.09
2017-12-05T08:38:01.293Z,99634.60
2017-12-05T08:40:28.825Z,99630.06
2017-12-05T08:43:02.500Z,99642.42
2017-12-05T08:45:59.722Z,99638.48
2017-12-05T08:54:19.795Z,99641.66
2017-12-05T08:56:49.448Z,99643.11
2017-12-05T09:13:09.800Z,99645.79
2017-12-05T09:15:37.758Z,99652.25
2017-12-05T09:20:50.911Z,99641.81
2017-12-05T09:23:18.436Z,99642.09
2017-12-05T09:25:46.123Z,99638.44
2017-12-05T09:28:14.536Z,99644.44
2017-12-05T09:30:42.020Z,99646.59
2017-12-05T09:33:09.560Z,99643.52
2017-12-05T09:35:37.137Z,99649.16
2017-12-05T09:38:04.749Z,99653.98
2017-12-05T09:40:32.352Z,99653.23
2017-12-05T09:42:59.889Z,99653.42
2017-12-05T09:45:27.653Z,99646.95
2017-12-05T09:47:55.131Z,99641.83
2017-12-05T09:50:22.809Z,99646.08
2017-12-05T09:52:50.303Z,99636.95
2017-12-05T09:55:17.852Z,99648.23
2017-12-05T09:57:45.436Z,99649.22
2017-12-05T10:00:12.970Z,99648.84
2017-12-05T10:02:40.532Z,99653.70
2017-12-05T10:05:08.116Z,99652.23
2017-12-05T10:07:35.747Z,99652.44
2017-12-05T10:10:03.272Z,99649.19
2017-12-05T10:12:31.049Z,99645.91
2017-12-05T10:14:59.419Z,99640.84
2017-12-05T10:17:27.341Z,99636.63
2017-12-05T10:19:54.937Z,99630.35
2017-12-05T10:22:23.941Z,99626.92
2017-12-05T10:27:51.735Z,99617.78
2017-12-05T10:30:19.792Z,99615.30
2017-12-05T10:56:23.868Z,99588.22
2017-12-05T11:04:54.224Z,99594.02
2017-12-05T11:07:31.202Z,99602.71
2017-12-05T11:10:03.276Z,99608.38
2017-12-05T11:12:36.017Z,99605.55
2017-12-05T11:15:07.026Z,99605.91
2017-12-05T11:17:48.028Z,99607.95
